createdAt,value
2022-09-25T00:01:57.632Z,99678.56
2022-09-25T00:03:59.759Z,99678.28
2022-09-25T00:06:13.181Z,99677.59
2022-09-25T00:08:16.618Z,99679.63
2022-09-25T00:10:19.029Z,99673.84
2022-09-25T00:12:20.848Z,99680.06
2022-09-25T00:14:22.740Z,99670.34
2022-09-25T00:16:27.578Z,99666.94
2022-09-25T00:18:48.071Z,99664.06
2022-09-25T00:21:01.058Z,99668.06
2022-09-25T00:23:02.987Z,99663.88
2022-09-25T00:25:05.051Z,99663.63
2022-09-25T00:27:08.506Z,99653.66
2022-09-25T00:29:17.573Z,99665.59
2022-09-25T00:31:24.965Z,99672.53
2022-09-25T00:33:26.812Z,99668.06
2022-09-25T00:35:28.497Z,99654.63
2022-09-25T00:37:30.461Z,99655.50
2022-09-25T00:39:33.249Z,99649.28
2022-09-25T00:41:35.118Z,99656.63
2022-09-25T00:43:48.997Z,99643.97
2022-09-25T00:45:50.915Z,99646.66
2022-09-25T00:48:00.076Z,99644.13
2022-09-25T00:50:04.852Z,99637.59
2022-09-25T00:52:15.410Z,99632.88
2022-09-25T00:54:22.353Z,99633.00
2022-09-25T00:56:25.159Z,99633.69
2022-09-25T00:58:29.953Z,99627.22
2022-09-25T01:00:33.400Z,99631.34
2022-09-25T01:02:40.121Z,99633.88
2022-09-25T01:04:46.239Z,99636.66
2022-09-25T01:06:49.769Z,99633.94
2022-09-25T01:08:52.230Z,99636.50
2022-09-25T01:10:54.326Z,99637.56
2022-09-25T01:12:58.110Z,99631.22
2022-09-25T01:14:59.817Z,99628.63
2022-09-25T01:17:17.042Z,99630.38
2022-09-25T01:19:53.944Z,99618.00
2022-09-25T01:22:20.197Z,99622.19
2022-09-25T01:24:41.113Z,99619.38
2022-09-25T01:26:56.962Z,99614.13
2022-09-25T01:29:16.854Z,99621.47
2022-09-25T01:31:29.981Z,99623.91
2022-09-25T01:33:36.893Z,99621.13
2022-09-25T01:35:44.100Z,99625.69
2022-09-25T01:37:55.201Z,99623.72
2022-09-25T01:40:15.134Z,99626.72
2022-09-25T01:42:29.586Z,99625.56
2022-09-25T01:44:37.077Z,99629.06
2022-09-25T01:46:45.819Z,99628.03
2022-09-25T01:48:59.101Z,99623.47
2022-09-25T01:51:09.478Z,99629.06
2022-09-25T01:53:16.895Z,99628.19
2022-09-25T01:55:24.330Z,99625.56
2022-09-25T01:57:33.053Z,99624.16
2022-09-25T01:59:54.354Z,99632.63
2022-09-25T02:01:59.560Z,99625.31
2022-09-25T02:04:10.068Z,99626.88
2022-09-25T02:06:19.777Z,99625.22
2022-09-25T02:08:44.674Z,99627.03
2022-09-25T02:10:53.842Z,99622.16
2022-09-25T02:13:02.054Z,99630.63
2022-09-25T02:15:26.696Z,99631.59
2022-09-25T02:18:34.895Z,99623.53
2022-09-25T02:20:37.399Z,99627.03
2022-09-25T02:22:39.343Z,99627.91
2022-09-25T02:24:54.120Z,99626.25
2022-09-25T02:26:58.598Z,99621.81
2022-09-25T02:29:02.683Z,99627.16
2022-09-25T02:31:10.487Z,99630.00
2022-09-25T02:33:13.270Z,99621.63
2022-09-25T02:35:16.311Z,99620.41
2022-09-25T02:37:19.430Z,99624.34
2022-09-25T02:39:25.501Z,99624.34
2022-09-25T02:42:09.810Z,99612.38
2022-09-25T02:44:26.621Z,99614.66
2022-09-25T02:46:49.325Z,99616.47
2022-09-25T02:49:15.914Z,99611.06
2022-09-25T02:51:20.843Z,99606.25
2022-09-25T02:53:41.218Z,99611.78
2022-09-25T02:55:58.781Z,99602.63
2022-09-25T02:58:09.924Z,99608.09
2022-09-25T03:00:13.631Z,99606.25
2022-09-25T03:02:17.568Z,99610.97
2022-09-25T03:04:21.987Z,99607.31
2022-09-25T03:06:26.191Z,99612.28
2022-09-25T03:08:38.617Z,99611.16
2022-09-25T03:10:41.466Z,99607.66
2022-09-25T03:12:44.034Z,99603.41
2022-09-25T03:14:49.162Z,99598.94
2022-09-25T03:16:57.991Z,99601.91
2022-09-25T03:19:01.137Z,99596.34
2022-09-25T03:21:05.825Z,99597.28
2022-09-25T03:23:08.113Z,99600.22
2022-09-25T03:25:10.628Z,99594.56
2022-09-25T03:27:13.107Z,99605.56
2022-09-25T03:29:17.557Z,99602.25
2022-09-25T03:31:20.633Z,99592.47
2022-09-25T03:33:27.324Z,99589.06
2022-09-25T03:35:29.694Z,99584.28
2022-09-25T03:37:32.740Z,99586.03
2022-09-25T03:39:34.811Z,99588.78
2022-09-25T03:41:37.471Z,99581.59
2022-09-25T03:43:41.291Z,99585.03
2022-09-25T03:45:43.756Z,99586.88
2022-09-25T03:47:46.052Z,99584.28
2022-09-25T03:49:50.625Z,99583.38
2022-09-25T03:51:52.839Z,99587.94
2022-09-25T03:53:55.613Z,99578.75
2022-09-25T03:55:58.020Z,99587.75
2022-09-25T03:58:00.643Z,99591.97
2022-09-25T04:00:03.936Z,99582.00
2022-09-25T04:02:14.925Z,99582.69
2022-09-25T04:04:17.704Z,99580.97
2022-09-25T04:06:22.986Z,99583.06
2022-09-25T04:08:27.258Z,99584.97
2022-09-25T04:10:29.648Z,99588.53
2022-09-25T04:12:37.533Z,99585.03
2022-09-25T04:14:40.227Z,99582.88
2022-09-25T04:16:43.907Z,99580.78
2022-09-25T04:18:46.424Z,99583.50
2022-09-25T04:20:48.916Z,99578.88
2022-09-25T04:22:51.265Z,99581.31
2022-09-25T04:24:55.212Z,99580.53
2022-09-25T04:26:57.625Z,99571.63
2022-09-25T04:29:03.917Z,99578.34
2022-09-25T04:31:06.999Z,99573.78
2022-09-25T04:33:28.680Z,99574.50
2022-09-25T04:35:33.335Z,99573.53
2022-09-25T04:37:35.987Z,99575.38
2022-09-25T04:39:38.061Z,99574.59
2022-09-25T04:41:40.277Z,99573.03
2022-09-25T04:43:43.656Z,99571.00
2022-09-25T04:45:47.497Z,99569.88
2022-09-25T04:47:49.603Z,99574.69
2022-09-25T04:49:52.812Z,99575.31
2022-09-25T04:51:57.329Z,99572.50
2022-09-25T04:54:00.155Z,99567.69
2022-09-25T04:56:04.678Z,99567.44
2022-09-25T04:58:06.729Z,99568.84
2022-09-25T05:00:10.956Z,99578.69
2022-09-25T05:02:13.823Z,99578.59
2022-09-25T05:04:16.554Z,99576.94
2022-09-25T05:06:19.928Z,99578.75
2022-09-25T05:08:23.509Z,99569.78
2022-09-25T05:10:30.307Z,99570.66
2022-09-25T05:12:37.027Z,99573.19
2022-09-25T05:14:41.834Z,99570.56
2022-09-25T05:16:43.975Z,99571.88
2022-09-25T05:18:46.107Z,99571.88
2022-09-25T05:20:49.045Z,99568.31
2022-09-25T05:22:55.493Z,99576.97
2022-09-25T05:24:59.126Z,99577.91
2022-09-25T05:27:01.446Z,99576.66
2022-09-25T05:29:04.971Z,99578.31
2022-09-25T05:31:07.460Z,99569.34
2022-09-25T05:33:09.843Z,99575.53
2022-09-25T05:35:12.060Z,99565.50
2022-09-25T05:37:14.293Z,99569.94
2022-09-25T05:39:17.310Z,99566.19
2022-09-25T05:41:19.369Z,99560.88
2022-09-25T05:43:21.950Z,99557.91
2022-09-25T05:45:24.614Z,99559.50
2022-09-25T05:47:27.034Z,99560.44
2022-09-25T05:49:30.340Z,99561.16
2022-09-25T05:51:33.383Z,99567.50
2022-09-25T05:53:36.148Z,99567.06
2022-09-25T05:55:41.605Z,99565.16
2022-09-25T05:57:43.559Z,99565.84
2022-09-25T05:59:45.815Z,99563.03
2022-09-25T06:01:47.973Z,99560.53
2022-09-25T06:03:50.369Z,99560.16
2022-09-25T06:05:53.453Z,99562.09
2022-09-25T06:07:56.227Z,99568.66
2022-09-25T06:09:58.309Z,99558.69
2022-09-25T06:12:00.534Z,99571.28
2022-09-25T06:14:04.236Z,99570.31
2022-09-25T06:16:15.366Z,99568.56
2022-09-25T06:18:17.351Z,99567.16
2022-09-25T06:20:22.896Z,99573.34
2022-09-25T06:22:25.406Z,99568.72
2022-09-25T06:24:27.509Z,99575.69
2022-09-25T06:26:29.785Z,99572.69
2022-09-25T06:28:32.001Z,99573.63
2022-09-25T06:30:36.298Z,99575.28
2022-09-25T06:32:38.424Z,99577.78
2022-09-25T06:34:40.286Z,99575.88
2022-09-25T06:36:42.645Z,99587.22
2022-09-25T06:38:44.942Z,99584.16
2022-09-25T06:40:49.325Z,99593.13
2022-09-25T06:42:59.182Z,99591.16
2022-09-25T06:45:01.928Z,99586.78
2022-09-25T06:47:04.024Z,99585.34
2022-09-25T06:49:06.133Z,99590.38
2022-09-25T06:51:09.252Z,99597.31
2022-09-25T06:53:12.107Z,99589.25
2022-09-25T06:55:14.992Z,99588.50
2022-09-25T06:57:17.000Z,99586.66
2022-09-25T06:59:19.015Z,99587.19
2022-09-25T07:01:21.135Z,99581.28
2022-09-25T07:03:42.183Z,99576.13
2022-09-25T07:05:45.486Z,99582.81
2022-09-25T07:07:48.551Z,99583.69
2022-09-25T07:09:50.609Z,99587.31
2022-09-25T07:11:53.257Z,99585.66
2022-09-25T07:13:55.657Z,99587.50
2022-09-25T07:16:08.858Z,99583.53
2022-09-25T07:18:10.972Z,99575.97
2022-09-25T07:20:15.531Z,99569.47
2022-09-25T07:22:17.426Z,99575.41
2022-09-25T07:24:19.930Z,99571.47
2022-09-25T07:26:24.711Z,99572.44
2022-09-25T07:28:26.636Z,99576.31
2022-09-25T07:30:29.876Z,99574.25
2022-09-25T07:32:32.075Z,99570.97
2022-09-25T07:34:37.653Z,99569.69
2022-09-25T07:36:41.386Z,99575.38
2022-09-25T07:38:43.991Z,99577.03
2022-09-25T07:40:46.606Z,99576.53
2022-09-25T07:42:48.634Z,99578.09
2022-09-25T07:44:50.695Z,99574.28
2022-09-25T07:46:53.318Z,99586.50
2022-09-25T07:48:55.866Z,99584.75
2022-09-25T07:51:06.956Z,99580.09
2022-09-25T07:53:08.926Z,99585.22
2022-09-25T07:55:11.088Z,99578.06
2022-09-25T07:57:13.661Z,99584.22
2022-09-25T07:59:16.429Z,99581.22
2022-09-25T08:01:18.908Z,99582.28
2022-09-25T08:03:21.691Z,99583.22
2022-09-25T08:05:24.017Z,99580.31
2022-09-25T08:07:28.669Z,99579.13
2022-09-25T08:09:30.935Z,99576.31
2022-09-25T08:11:34.380Z,99575.84
2022-09-25T08:13:39.396Z,99565.31
2022-09-25T08:15:41.820Z,99559.00
2022-09-25T08:17:44.055Z,99564.69
2022-09-25T08:19:46.760Z,99554.56
2022-09-25T08:21:49.022Z,99552.94
2022-09-25T08:23:53.131Z,99550.03
2022-09-25T08:25:58.508Z,99558.09
2022-09-25T08:28:00.999Z,99559.28
2022-09-25T08:30:03.462Z,99556.25
2022-09-25T08:32:08.635Z,99550.19
2022-09-25T08:34:38.917Z,99550.50
2022-09-25T08:36:32.807Z,99556.59
2022-09-25T08:38:34.739Z,99554.63
2022-09-25T08:40:52.704Z,99553.31
2022-09-25T08:42:56.292Z,99551.66
2022-09-25T08:45:41.140Z,99560.16
2022-09-25T08:48:02.466Z,99548.03
2022-09-25T08:50:11.186Z,99549.56
2022-09-25T08:52:18.420Z,99551.06
2022-09-25T08:54:29.561Z,99550.88
2022-09-25T08:56:35.301Z,99543.56
2022-09-25T08:58:43.436Z,99541.38
2022-09-25T09:00:46.421Z,99543.84
2022-09-25T09:02:54.291Z,99548.19
2022-09-25T09:05:01.469Z,99547.44
2022-09-25T09:07:28.044Z,99547.00
2022-09-25T09:09:46.446Z,99551.34
2022-09-25T09:12:12.598Z,99560.06
2022-09-25T09:14:20.786Z,99550.66
2022-09-25T09:16:52.509Z,99546.47
2022-09-25T09:18:56.657Z,99550.63
2022-09-25T09:21:07.398Z,99550.38
2022-09-25T09:23:16.861Z,99547.06
2022-09-25T09:25:36.614Z,99549.56
2022-09-25T09:27:54.081Z,99548.09
2022-09-25T09:30:05.960Z,99541.31
2022-09-25T09:32:14.310Z,99542.72
2022-09-25T09:35:04.802Z,99542.72
2022-09-25T09:37:27.893Z,99542.34
2022-09-25T09:39:42.806Z,99546.56
2022-09-25T09:42:15.970Z,99541.13
2022-09-25T09:44:40.052Z,99540.38
2022-09-25T09:46:48.962Z,99544.72
2022-09-25T09:49:26.279Z,99544.09
2022-09-25T09:51:36.010Z,99541.97
2022-09-25T09:53:57.016Z,99534.91
2022-09-25T09:56:14.906Z,99541.75
2022-09-25T09:58:34.340Z,99548.31
2022-09-25T10:00:39.659Z,99548.09
2022-09-25T10:02:53.112Z,99553.53
2022-09-25T10:04:56.987Z,99550.44
2022-09-25T10:07:18.570Z,99552.19
2022-09-25T10:09:20.799Z,99543.75
2022-09-25T10:11:24.018Z,99547.50
2022-09-25T10:13:39.711Z,99543.88
2022-09-25T10:15:48.453Z,99538.91
2022-09-25T10:17:50.998Z,99538.72
2022-09-25T10:19:59.745Z,99527.78
2022-09-25T10:22:16.843Z,99535.84
2022-09-25T10:24:51.470Z,99531.38
2022-09-25T10:26:53.458Z,99530.13
2022-09-25T10:29:00.409Z,99527.31
2022-09-25T10:31:06.218Z,99528.16
2022-09-25T10:33:16.988Z,99527.31
2022-09-25T10:35:21.522Z,99519.72
2022-09-25T10:37:34.987Z,99514.91
2022-09-25T10:39:45.461Z,99516.38
2022-09-25T10:41:48.140Z,99515.41
2022-09-25T10:44:02.104Z,99523.25
2022-09-25T10:46:13.272Z,99524.56
2022-09-25T10:48:48.552Z,99507.22
2022-09-25T10:51:08.571Z,99510.72
2022-09-25T10:53:37.092Z,99511.94
2022-09-25T10:55:46.613Z,99512.81
2022-09-25T10:57:48.982Z,99505.25
2022-09-25T10:59:52.174Z,99505.38
2022-09-25T11:01:56.188Z,99511.44
2022-09-25T11:03:59.090Z,99508.59
2022-09-25T11:06:07.505Z,99509.72
2022-09-25T11:08:09.538Z,99503.94
2022-09-25T11:10:21.221Z,99505.78
2022-09-25T11:12:25.897Z,99507.16
2022-09-25T11:14:33.015Z,99508.50
2022-09-25T11:17:06.034Z,99497.47
2022-09-25T11:19:13.027Z,99493.63
2022-09-25T11:21:19.808Z,99495.22
2022-09-25T11:23:41.478Z,99503.41
2022-09-25T11:25:57.540Z,99504.06
2022-09-25T11:28:20.493Z,99500.94
2022-09-25T11:30:24.074Z,99501.81
2022-09-25T11:32:34.991Z,99506.28
2022-09-25T11:34:39.650Z,99514.47
2022-09-25T11:37:18.379Z,99514.84
2022-09-25T11:40:02.925Z,99507.91
2022-09-25T11:42:19.071Z,99511.25
2022-09-25T11:45:00.616Z,99510.38
2022-09-25T11:47:08.134Z,99511.00
2022-09-25T11:49:22.687Z,99502.69
2022-09-25T11:51:44.965Z,99496.22
2022-09-25T11:54:07.277Z,99511.75
2022-09-25T11:56:26.396Z,99509.88
2022-09-25T11:58:43.596Z,99508.16
2022-09-25T12:00:57.243Z,99504.31
2022-09-25T12:03:17.821Z,99501.94
2022-09-25T12:05:45.412Z,99494.88
2022-09-25T12:08:17.819Z,99493.00
2022-09-25T12:10:25.962Z,99492.03
2022-09-25T12:12:41.660Z,99485.94
2022-09-25T12:14:59.876Z,99482.22
2022-09-25T12:17:26.817Z,99468.69
2022-09-25T12:19:52.274Z,99467.47
2022-09-25T12:22:10.034Z,99465.69
2022-09-25T12:24:48.634Z,99460.63
2022-09-25T12:27:01.902Z,99453.94
2022-09-25T12:29:29.602Z,99445.09
2022-09-25T12:31:43.643Z,99455.28
2022-09-25T12:34:02.416Z,99445.38
2022-09-25T12:36:18.294Z,99445.00
2022-09-25T12:38:30.471Z,99436.53
2022-09-25T12:40:48.179Z,99438.16
2022-09-25T12:43:03.081Z,99431.09
2022-09-25T12:45:27.820Z,99430.06
2022-09-25T12:47:51.128Z,99428.34
2022-09-25T12:50:08.081Z,99424.50
2022-09-25T12:52:14.413Z,99426.50
2022-09-25T12:54:25.214Z,99423.75
2022-09-25T12:56:41.824Z,99421.88
2022-09-25T12:59:05.462Z,99428.09
2022-09-25T13:01:17.347Z,99423.38
2022-09-25T13:03:34.474Z,99426.97
2022-09-25T13:05:45.625Z,99422.25
2022-09-25T13:08:14.905Z,99418.78
2022-09-25T13:10:22.076Z,99423.97
2022-09-25T13:12:38.105Z,99414.94
2022-09-25T13:14:48.507Z,99414.56
2022-09-25T13:16:51.240Z,99414.19
2022-09-25T13:19:28.869Z,99409.22
2022-09-25T13:21:37.030Z,99418.91
2022-09-25T13:23:41.768Z,99414.78
2022-09-25T13:26:12.790Z,99413.78
2022-09-25T13:28:23.526Z,99410.78
2022-09-25T13:30:29.052Z,99416.25
2022-09-25T13:32:35.240Z,99417.38
2022-09-25T13:34:39.929Z,99418.25
2022-09-25T13:36:50.674Z,99412.66
2022-09-25T13:40:00.458Z,99412.53
2022-09-25T13:42:25.707Z,99426.69
2022-09-25T13:44:50.177Z,99416.72
2022-09-25T13:47:12.249Z,99407.03
2022-09-25T13:49:35.311Z,99399.09
2022-09-25T13:51:37.740Z,99395.84
2022-09-25T13:54:22.782Z,99403.91
2022-09-25T13:56:34.094Z,99397.91
2022-09-25T13:59:07.669Z,99400.91
2022-09-25T14:01:33.539Z,99395.44
2022-09-25T14:03:46.015Z,99398.06
2022-09-25T14:05:48.595Z,99391.75
2022-09-25T14:07:55.622Z,99389.00
2022-09-25T14:10:00.619Z,99389.72
2022-09-25T14:12:03.178Z,99383.41
2022-09-25T14:14:10.503Z,99394.31
2022-09-25T14:16:36.440Z,99398.19
2022-09-25T14:18:49.174Z,99393.34
2022-09-25T14:20:59.979Z,99391.31
2022-09-25T14:23:12.105Z,99393.94
2022-09-25T14:25:33.267Z,99394.59
2022-09-25T14:27:35.550Z,99399.03
2022-09-25T14:29:41.231Z,99378.31
2022-09-25T14:31:49.075Z,99394.09
2022-09-25T14:34:26.163Z,99394.63
2022-09-25T14:37:19.378Z,99399.84
2022-09-25T14:39:39.046Z,99396.41
2022-09-25T14:42:08.281Z,99388.34
2022-09-25T14:44:25.956Z,99386.59
2022-09-25T14:46:28.653Z,99382.97
2022-09-25T14:48:54.432Z,99372.22
2022-09-25T14:51:02.512Z,99357.69
2022-09-25T14:53:13.259Z,99349.78
2022-09-25T14:55:20.556Z,99357.81
2022-09-25T14:57:28.124Z,99354.59
2022-09-25T14:59:43.678Z,99356.00
2022-09-25T15:01:49.361Z,99346.56
2022-09-25T15:03:51.667Z,99332.91
2022-09-25T15:05:53.656Z,99322.97
2022-09-25T15:07:59.488Z,99321.09
2022-09-25T15:10:01.533Z,99335.75
2022-09-25T15:12:34.199Z,99332.81
2022-09-25T15:14:36.154Z,99326.22
2022-09-25T15:16:57.464Z,99319.50
2022-09-25T15:19:01.972Z,99302.50
2022-09-25T15:21:04.238Z,99304.38
2022-09-25T15:23:09.076Z,99300.03
2022-09-25T15:25:22.943Z,99305.88
2022-09-25T15:27:28.428Z,99310.09
2022-09-25T15:29:35.484Z,99321.41
2022-09-25T15:31:37.702Z,99326.97
2022-09-25T15:33:41.165Z,99324.88
2022-09-25T15:35:43.009Z,99316.09
2022-09-25T15:37:46.243Z,99322.94
2022-09-25T15:39:48.360Z,99324.91
2022-09-25T15:41:50.679Z,99330.25
2022-09-25T15:43:56.528Z,99327.63
2022-09-25T15:46:28.111Z,99326.38
2022-09-25T15:48:33.060Z,99323.41
2022-09-25T15:50:35.699Z,99327.13
2022-09-25T15:52:38.468Z,99319.06
2022-09-25T15:54:45.159Z,99322.91
2022-09-25T15:56:55.427Z,99322.91
2022-09-25T15:59:04.691Z,99323.06
2022-09-25T16:01:25.432Z,99312.84
2022-09-25T16:03:49.556Z,99316.00
2022-09-25T16:05:52.512Z,99315.84
2022-09-25T16:08:15.664Z,99312.28
2022-09-25T16:10:17.395Z,99310.03
2022-09-25T16:12:20.029Z,99301.97
2022-09-25T16:14:30.282Z,99308.66
2022-09-25T16:16:32.486Z,99308.81
2022-09-25T16:18:39.712Z,99307.47
2022-09-25T16:20:42.065Z,99307.56
2022-09-25T16:22:51.004Z,99311.66
2022-09-25T16:24:54.885Z,99303.34
2022-09-25T16:27:00.846Z,99299.00
2022-09-25T16:29:11.912Z,99295.69
2022-09-25T16:31:13.964Z,99299.63
2022-09-25T16:33:28.611Z,99302.13
2022-09-25T16:36:09.023Z,99295.91
2022-09-25T16:38:02.937Z,99293.09
2022-09-25T16:40:38.471Z,99304.72
2022-09-25T16:42:40.789Z,99295.41
2022-09-25T16:44:47.195Z,99292.94
2022-09-25T16:46:54.978Z,99299.78
2022-09-25T16:49:01.668Z,99298.28
2022-09-25T16:51:06.388Z,99297.56
2022-09-25T16:53:08.963Z,99289.38
2022-09-25T16:55:27.479Z,99300.09
2022-09-25T16:57:29.549Z,99305.44
2022-09-25T16:59:31.552Z,99299.13
2022-09-25T17:01:33.794Z,99306.66
2022-09-25T17:03:50.178Z,99302.31
2022-09-25T17:05:52.379Z,99300.81
2022-09-25T17:07:57.483Z,99308.13
2022-09-25T17:10:01.179Z,99306.66
2022-09-25T17:12:08.557Z,99297.84
2022-09-25T17:14:25.685Z,99298.44
2022-09-25T17:16:27.715Z,99299.09
2022-09-25T17:18:30.113Z,99295.63
2022-09-25T17:20:32.076Z,99295.63
2022-09-25T17:22:34.175Z,99294.84
2022-09-25T17:24:36.307Z,99292.25
2022-09-25T17:26:39.307Z,99294.34
2022-09-25T17:28:41.875Z,99296.22
2022-09-25T17:30:45.024Z,99303.72
2022-09-25T17:32:47.160Z,99302.00
2022-09-25T17:34:49.094Z,99303.97
2022-09-25T17:36:52.060Z,99299.63
2022-09-25T17:38:53.968Z,99304.19
2022-09-25T17:41:00.497Z,99292.31
2022-09-25T17:43:05.126Z,99300.81
2022-09-25T17:45:25.910Z,99305.56
2022-09-25T17:47:28.387Z,99297.63
2022-09-25T17:49:31.176Z,99287.72
2022-09-25T17:51:33.128Z,99286.59
2022-09-25T17:53:35.310Z,99283.03
2022-09-25T17:55:37.499Z,99279.97
2022-09-25T17:57:39.365Z,99286.41
2022-09-25T17:59:41.363Z,99279.84
2022-09-25T18:01:43.445Z,99286.25
2022-09-25T18:03:45.347Z,99286.16
2022-09-25T18:05:48.011Z,99283.31
2022-09-25T18:07:50.344Z,99286.91
2022-09-25T18:09:52.462Z,99276.03
2022-09-25T18:11:55.155Z,99280.47
2022-09-25T18:14:01.330Z,99279.63
2022-09-25T18:16:04.725Z,99285.91
2022-09-25T18:18:06.893Z,99287.03
2022-09-25T18:20:31.839Z,99272.66
2022-09-25T18:22:36.537Z,99280.72
2022-09-25T18:24:38.705Z,99286.16
2022-09-25T18:26:43.612Z,99282.56
2022-09-25T18:28:45.602Z,99285.41
2022-09-25T18:30:47.706Z,99277.25
2022-09-25T18:32:50.367Z,99277.34
2022-09-25T18:34:52.456Z,99280.66
2022-09-25T18:36:57.571Z,99281.09
2022-09-25T18:38:59.494Z,99279.13
2022-09-25T18:41:02.819Z,99285.44
2022-09-25T18:43:04.807Z,99276.41
2022-09-25T18:45:07.748Z,99276.50
2022-09-25T18:47:09.734Z,99271.06
2022-09-25T18:49:12.060Z,99274.13
2022-09-25T18:51:15.076Z,99283.19
2022-09-25T18:53:17.778Z,99272.50
2022-09-25T18:55:19.803Z,99273.75
2022-09-25T18:57:21.987Z,99270.91
2022-09-25T18:59:28.408Z,99271.78
2022-09-25T19:01:31.201Z,99276.19
2022-09-25T19:03:58.230Z,99277.19
2022-09-25T19:06:03.214Z,99269.03
2022-09-25T19:08:05.315Z,99274.63
2022-09-25T19:10:09.758Z,99272.75
2022-09-25T19:12:17.152Z,99279.41
2022-09-25T19:14:20.158Z,99277.03
2022-09-25T19:17:24.878Z,99274.75
2022-09-25T19:19:28.140Z,99278.66
2022-09-25T19:21:31.604Z,99279.63
2022-09-25T19:23:35.676Z,99276.69
2022-09-25T19:25:38.374Z,99274.19
2022-09-25T19:27:40.673Z,99264.94
2022-09-25T19:29:47.833Z,99273.00
2022-09-25T19:31:50.045Z,99260.59
2022-09-25T19:33:53.316Z,99258.88
2022-09-25T19:36:06.834Z,99267.38
2022-09-25T19:38:12.573Z,99262.44
2022-09-25T19:40:33.580Z,99266.28
2022-09-25T19:42:36.450Z,99266.16
2022-09-25T19:44:39.185Z,99265.41
2022-09-25T19:46:43.489Z,99267.25
2022-09-25T19:48:47.788Z,99259.22
2022-09-25T19:50:50.202Z,99264.75
2022-09-25T19:52:52.484Z,99259.44
2022-09-25T19:54:54.544Z,99251.72
2022-09-25T19:56:56.792Z,99257.63
2022-09-25T19:58:58.843Z,99255.91
2022-09-25T20:01:01.563Z,99248.63
2022-09-25T20:03:03.835Z,99243.22
2022-09-25T20:05:06.857Z,99242.88
2022-09-25T20:07:08.930Z,99244.16
2022-09-25T20:09:11.750Z,99243.53
2022-09-25T20:11:14.979Z,99245.81
2022-09-25T20:13:17.400Z,99240.91
2022-09-25T20:15:19.542Z,99241.69
2022-09-25T20:17:22.244Z,99243.75
2022-09-25T20:19:24.439Z,99246.34
2022-09-25T20:21:30.146Z,99243.47
2022-09-25T20:23:32.403Z,99240.38
2022-09-25T20:25:34.677Z,99248.53
2022-09-25T20:27:37.552Z,99244.94
2022-09-25T20:29:39.644Z,99253.31
2022-09-25T20:31:47.219Z,99244.31
2022-09-25T20:33:49.726Z,99245.81
2022-09-25T20:35:52.204Z,99241.91
2022-09-25T20:37:54.179Z,99242.38
2022-09-25T20:39:56.558Z,99247.25
2022-09-25T20:41:59.235Z,99240.06
2022-09-25T20:44:01.803Z,99235.31
2022-09-25T20:46:07.281Z,99239.31
2022-09-25T20:48:09.393Z,99233.88
2022-09-25T20:50:11.983Z,99230.31
2022-09-25T20:52:14.713Z,99221.19
2022-09-25T20:54:18.893Z,99223.56
2022-09-25T20:56:24.518Z,99223.78
2022-09-25T20:58:26.863Z,99231.53
2022-09-25T21:00:29.393Z,99222.38
2022-09-25T21:02:32.037Z,99223.47
2022-09-25T21:04:34.234Z,99228.69
2022-09-25T21:06:39.606Z,99226.09
2022-09-25T21:08:42.122Z,99212.72
2022-09-25T21:10:45.509Z,99214.16
2022-09-25T21:12:47.626Z,99228.34
2022-09-25T21:14:50.329Z,99204.69
2022-09-25T21:16:54.092Z,99201.22
2022-09-25T21:19:02.143Z,99200.03
2022-09-25T21:21:07.408Z,99199.50
2022-09-25T21:23:09.425Z,99198.72
2022-09-25T21:25:12.142Z,99189.50
2022-09-25T21:27:14.929Z,99196.78
2022-09-25T21:29:18.066Z,99192.97
2022-09-25T21:31:23.164Z,99190.44
2022-09-25T21:33:25.496Z,99198.50
2022-09-25T21:35:27.739Z,99192.97
2022-09-25T21:37:30.295Z,99184.16
2022-09-25T21:39:32.627Z,99183.94
2022-09-25T21:41:35.283Z,99181.22
2022-09-25T21:43:38.566Z,99187.53
2022-09-25T21:45:40.609Z,99179.50
2022-09-25T21:47:43.001Z,99177.41
2022-09-25T21:49:45.149Z,99168.63
2022-09-25T21:51:48.495Z,99169.50
2022-09-25T21:53:52.548Z,99170.59
2022-09-25T21:56:07.907Z,99171.91
2022-09-25T21:58:10.045Z,99162.44
2022-09-25T22:00:13.931Z,99170.38
2022-09-25T22:02:15.958Z,99176.16
2022-09-25T22:04:18.234Z,99173.44
2022-09-25T22:06:23.065Z,99172.13
2022-09-25T22:08:25.259Z,99174.72
2022-09-25T22:10:27.649Z,99175.81
2022-09-25T22:12:29.659Z,99174.19
2022-09-25T22:14:32.334Z,99176.00
2022-09-25T22:16:37.450Z,99179.72
2022-09-25T22:18:52.650Z,99176.72
2022-09-25T22:20:55.066Z,99182.72
2022-09-25T22:22:56.989Z,99182.16
2022-09-25T22:24:59.025Z,99173.38
2022-09-25T22:27:00.957Z,99177.94
2022-09-25T22:29:04.493Z,99171.63
2022-09-25T22:31:19.174Z,99173.38
2022-09-25T22:33:21.676Z,99169.25
2022-09-25T22:35:25.902Z,99162.38
2022-09-25T22:37:28.170Z,99161.63
2022-09-25T22:39:30.280Z,99159.78
2022-09-25T22:41:33.257Z,99153.31
2022-09-25T22:43:35.975Z,99158.59
2022-09-25T22:45:38.222Z,99150.47
2022-09-25T22:47:40.119Z,99149.50
2022-09-25T22:49:42.407Z,99142.16
2022-09-25T22:51:44.405Z,99140.31
2022-09-25T22:53:47.263Z,99152.91
2022-09-25T22:55:49.684Z,99153.56
2022-09-25T22:57:51.988Z,99147.59
2022-09-25T22:59:53.950Z,99141.19
2022-09-25T23:01:56.002Z,99143.22
2022-09-25T23:04:01.044Z,99144.19
2022-09-25T23:06:03.796Z,99143.22
2022-09-25T23:08:06.838Z,99141.19
2022-09-25T23:10:09.358Z,99137.28
2022-09-25T23:12:11.221Z,99127.31
2022-09-25T23:14:20.711Z,99124.59
2022-09-25T23:16:23.093Z,99131.75
2022-09-25T23:18:25.167Z,99121.44
2022-09-25T23:20:27.399Z,99118.06
2022-09-25T23:22:29.494Z,99124.28
2022-09-25T23:24:31.704Z,99122.41
2022-09-25T23:26:34.944Z,99119.56
2022-09-25T23:28:41.901Z,99114.38
2022-09-25T23:30:44.090Z,99115.16
2022-09-25T23:32:46.073Z,99118.50
2022-09-25T23:34:48.038Z,99111.25
2022-09-25T23:36:49.997Z,99113.06
2022-09-25T23:38:54.289Z,99115.03
2022-09-25T23:40:56.187Z,99109.41
2022-09-25T23:42:58.391Z,99104.06
2022-09-25T23:45:00.332Z,99108.94
2022-09-25T23:47:02.489Z,99108.19
2022-09-25T23:49:04.960Z,99107.88
2022-09-25T23:51:07.160Z,99106.13
2022-09-25T23:53:09.271Z,99103.19
2022-09-25T23:55:11.440Z,99097.78
2022-09-25T23:57:15.221Z,99098.41
2022-09-25T23:59:17.215Z,99089.00
